Time;durP1;ratioP1;P1;durP2;ratioP2;P2;SDS_P1;SDS_P2;PMS_P1;PMS_P2;Temp;Humidity;BMP_temperature;BMP_pressure;BME280_temperature;BME280_humidity;BME280_pressure;Samples;Min_cycle;Max_cycle;Signal;HPM_P1;HPM_P2
2021/03/13 00:00:43;;;;;;;6.17;2.03;;;7.50;99.90;;;;;;5095035;28;20506;-75
2021/03/13 00:03:11;;;;;;;4.97;2.30;;;7.50;99.90;;;;;;5092799;28;20212;-75
2021/03/13 00:05:38;;;;;;;8.93;2.53;;;7.70;99.90;;;;;;5092921;28;20245;-75
2021/03/13 00:08:05;;;;;;;6.67;2.20;;;7.50;99.90;;;;;;5082070;28;20430;-75
2021/03/13 00:10:32;;;;;;;4.20;2.03;;;7.50;99.90;;;;;;5089605;28;20495;-75
2021/03/13 00:12:58;;;;;;;6.47;1.90;;;7.60;99.90;;;;;;5106419;28;20417;-75
2021/03/13 00:15:27;;;;;;;5.33;1.87;;;7.50;99.90;;;;;;5103660;28;20457;-76
2021/03/13 00:17:54;;;;;;;5.40;2.13;;;7.50;99.90;;;;;;5106525;28;20453;-75
2021/03/13 00:20:25;;;;;;;6.93;1.90;;;7.60;99.90;;;;;;5106640;28;20513;-76
2021/03/13 00:22:52;;;;;;;4.93;1.93;;;7.50;99.90;;;;;;5091211;28;20484;-75
2021/03/13 00:25:19;;;;;;;8.70;2.50;;;7.50;99.90;;;;;;5088460;28;20474;-75
2021/03/13 00:27:46;;;;;;;4.90;2.20;;;7.60;99.90;;;;;;5092501;28;20413;-76
2021/03/13 00:30:23;;;;;;;7.40;2.00;;;7.60;99.90;;;;;;5094889;28;20418;-75
2021/03/13 00:32:55;;;;;;;4.93;2.00;;;7.60;99.90;;;;;;5096110;28;20776;-75
2021/03/13 00:35:21;;;;;;;4.73;1.87;;;7.60;99.90;;;;;;5108408;28;20410;-75
2021/03/13 00:37:48;;;;;;;5.27;2.07;;;7.60;99.90;;;;;;5091123;28;20431;-75
2021/03/13 00:40:16;;;;;;;3.80;2.13;;;7.50;99.90;;;;;;5065797;28;20439;-75
2021/03/13 00:42:42;;;;;;;6.57;1.97;;;7.60;99.90;;;;;;5099165;28;20468;-75
2021/03/13 00:45:10;;;;;;;5.23;2.00;;;7.50;99.90;;;;;;5104536;28;20452;-75
2021/03/13 00:47:36;;;;;;;5.97;2.47;;;7.70;99.90;;;;;;5096970;28;20417;-76
2021/03/13 00:50:04;;;;;;;5.07;2.00;;;7.70;99.90;;;;;;5073530;28;20422;-76
2021/03/13 00:52:30;;;;;;;5.37;1.97;;;7.70;99.90;;;;;;5086601;28;20184;-75
2021/03/13 00:54:55;;;;;;;5.67;2.13;;;7.70;99.90;;;;;;5099255;28;20909;-76
2021/03/13 00:57:21;;;;;;;5.10;2.10;;;7.70;99.90;;;;;;5083851;28;20697;-75
2021/03/13 00:59:47;;;;;;;2.47;1.93;;;7.70;99.90;;;;;;5105981;28;20187;-75
2021/03/13 01:02:12;;;;;;;6.83;2.77;;;7.80;99.90;;;;;;5096363;28;20374;-75
2021/03/13 01:04:38;;;;;;;7.50;2.23;;;7.50;99.90;;;;;;5085053;28;20187;-75
2021/03/13 01:07:04;;;;;;;6.70;2.00;;;7.60;99.90;;;;;;5089158;28;20241;-76
2021/03/13 01:09:29;;;;;;;9.10;2.20;;;7.70;99.90;;;;;;5082894;28;20721;-76
2021/03/13 01:11:58;;;;;;;3.70;1.97;;;7.80;99.90;;;;;;5073598;28;20195;-75
2021/03/13 01:14:27;;;;;;;3.70;1.93;;;7.80;99.90;;;;;;5102244;28;20191;-75
2021/03/13 01:16:52;;;;;;;5.83;2.30;;;7.60;99.90;;;;;;5106745;28;20484;-75
2021/03/13 01:19:18;;;;;;;3.30;2.40;;;7.80;99.90;;;;;;5088234;28;20457;-75
2021/03/13 01:21:44;;;;;;;4.87;2.23;;;7.60;99.90;;;;;;5106180;28;20636;-76
2021/03/13 01:24:09;;;;;;;4.57;2.30;;;7.70;99.90;;;;;;5075929;28;20180;-76
2021/03/13 01:26:36;;;;;;;3.33;2.20;;;7.60;99.90;;;;;;5090645;28;20452;-75
2021/03/13 01:29:01;;;;;;;2.77;2.10;;;7.50;99.90;;;;;;5084669;28;20460;-75
2021/03/13 01:31:27;;;;;;;4.77;1.97;;;7.60;99.90;;;;;;5100879;28;21007;-75
2021/03/13 01:33:53;;;;;;;2.17;2.00;;;7.70;99.90;;;;;;5101619;28;20202;-75
2021/03/13 01:36:18;;;;;;;3.00;2.00;;;7.60;99.90;;;;;;5106104;28;20233;-75
2021/03/13 01:38:44;;;;;;;5.07;2.57;;;7.50;99.90;;;;;;5070987;28;20199;-75
2021/03/13 01:41:10;;;;;;;3.87;1.97;;;7.60;99.90;;;;;;5084626;28;20192;-75
2021/03/13 01:43:35;;;;;;;3.00;2.50;;;7.60;99.90;;;;;;5072647;28;20947;-75
2021/03/13 01:46:01;;;;;;;3.80;2.90;;;7.50;99.90;;;;;;5097686;28;20499;-75
2021/03/13 01:48:32;;;;;;;5.57;2.60;;;7.60;99.90;;;;;;5084268;28;20274;-75
2021/03/13 01:50:59;;;;;;;7.87;4.40;;;7.70;99.90;;;;;;5105067;28;20536;-75
2021/03/13 01:53:25;;;;;;;3.97;3.57;;;7.80;99.90;;;;;;5076471;28;20437;-75
2021/03/13 01:55:52;;;;;;;6.53;4.10;;;7.60;99.90;;;;;;5077741;28;20423;-76
2021/03/13 01:58:17;;;;;;;4.57;2.80;;;7.70;99.90;;;;;;5090549;28;20917;-75
2021/03/13 02:00:43;;;;;;;5.03;3.07;;;7.50;99.90;;;;;;5104741;28;20431;-76
2021/03/13 02:03:09;;;;;;;5.10;3.27;;;7.60;99.90;;;;;;5093272;28;20294;-75
2021/03/13 02:05:42;;;;;;;5.20;3.43;;;7.50;99.90;;;;;;5105396;28;20200;-75
2021/03/13 02:08:26;;;;;;;5.73;3.60;;;7.20;99.90;;;;;;5100465;28;20874;-76
2021/03/13 02:11:17;;;;;;;4.33;3.40;;;7.50;99.90;;;;;;5095954;28;20466;-76
2021/03/13 02:14:01;;;;;;;4.07;3.20;;;7.40;99.90;;;;;;5099095;28;20444;-76
2021/03/13 02:16:59;;;;;;;5.07;3.37;;;7.20;99.90;;;;;;5102709;28;20418;-76
2021/03/13 02:19:55;;;;;;;6.00;3.63;;;7.30;99.90;;;;;;5102856;28;20512;-76
2021/03/13 02:22:24;;;;;;;3.57;3.20;;;7.30;99.90;;;;;;5106665;28;20458;-76
2021/03/13 02:25:01;;;;;;;6.90;3.30;;;7.30;99.90;;;;;;5079144;28;20468;-76
2021/03/13 02:27:44;;;;;;;5.70;3.70;;;7.50;99.90;;;;;;5082404;28;20429;-76
2021/03/13 02:30:22;;;;;;;3.93;3.10;;;7.40;99.90;;;;;;5096724;28;20421;-75
2021/03/13 02:33:25;;;;;;;3.90;3.23;;;7.30;99.90;;;;;;5101721;28;20424;-76
2021/03/13 02:35:57;;;;;;;4.60;3.40;;;7.30;99.90;;;;;;5106533;28;20773;-75
2021/03/13 02:38:34;;;;;;;5.90;3.60;;;7.30;99.90;;;;;;5097244;28;20443;-75
2021/03/13 02:41:05;;;;;;;5.60;3.57;;;7.20;99.90;;;;;;5093994;28;20429;-75
2021/03/13 02:43:33;;;;;;;4.90;3.63;;;7.20;99.90;;;;;;5092477;28;20423;-76
2021/03/13 02:46:02;;;;;;;3.73;3.00;;;7.10;99.90;;;;;;5095648;28;20453;-75
2021/03/13 02:48:33;;;;;;;3.33;3.03;;;7.00;99.90;;;;;;5102108;28;20483;-76
2021/03/13 02:51:01;;;;;;;6.07;3.20;;;6.90;99.90;;;;;;5104179;28;20430;-75
2021/03/13 02:53:28;;;;;;;4.50;3.33;;;7.20;99.90;;;;;;5098595;28;20439;-75
2021/03/13 02:55:55;;;;;;;4.17;2.87;;;7.10;99.90;;;;;;5089388;28;20434;-75
2021/03/13 02:58:24;;;;;;;3.83;3.40;;;6.90;99.90;;;;;;5092752;28;20767;-75
2021/03/13 03:00:52;;;;;;;3.20;2.90;;;7.10;99.90;;;;;;5104460;28;20449;-75
2021/03/13 03:03:19;;;;;;;5.30;3.13;;;7.00;99.90;;;;;;5078814;28;20752;-75
2021/03/13 03:05:46;;;;;;;3.57;2.90;;;6.90;99.90;;;;;;5104846;28;20442;-76
2021/03/13 03:08:13;;;;;;;4.90;3.00;;;7.00;99.90;;;;;;5105722;28;20448;-75
2021/03/13 03:10:43;;;;;;;3.33;2.63;;;7.00;99.90;;;;;;5096416;28;20430;-75
2021/03/13 03:13:09;;;;;;;3.80;3.00;;;7.00;99.90;;;;;;5094376;28;20436;-75
2021/03/13 03:15:35;;;;;;;4.10;3.40;;;6.90;99.90;;;;;;5108625;28;20469;-75
2021/03/13 03:18:10;;;;;;;3.67;3.37;;;7.00;99.90;;;;;;5096606;28;20429;-75
2021/03/13 03:20:37;;;;;;;5.63;3.37;;;7.00;99.90;;;;;;5088900;28;20418;-75
2021/03/13 03:23:05;;;;;;;4.10;3.67;;;6.90;99.90;;;;;;5110032;28;20844;-75
2021/03/13 03:25:33;;;;;;;6.17;3.77;;;6.80;99.90;;;;;;5063247;28;20426;-75
2021/03/13 03:27:59;;;;;;;5.27;3.53;;;6.70;99.90;;;;;;5075767;28;20430;-75
2021/03/13 03:30:28;;;;;;;4.07;3.60;;;6.90;99.90;;;;;;5084937;28;20414;-76
2021/03/13 03:32:55;;;;;;;3.33;3.03;;;7.10;99.90;;;;;;5109250;28;20432;-76
2021/03/13 03:35:23;;;;;;;8.47;4.07;;;6.90;99.90;;;;;;5109231;28;20936;-75
2021/03/13 03:37:51;;;;;;;4.93;3.10;;;6.80;99.90;;;;;;5109617;28;20421;-75
2021/03/13 03:40:18;;;;;;;4.03;3.50;;;7.00;99.90;;;;;;5073526;28;20442;-75
2021/03/13 03:42:58;;;;;;;5.40;3.63;;;7.00;99.90;;;;;;5097647;28;20513;-75
2021/03/13 03:45:29;;;;;;;3.87;3.47;;;6.80;99.90;;;;;;5102526;28;20863;-75
2021/03/13 03:47:55;;;;;;;5.77;3.53;;;7.00;99.90;;;;;;5084383;28;20450;-75
2021/03/13 03:50:23;;;;;;;3.63;3.33;;;7.00;99.90;;;;;;5102997;28;20940;-75
2021/03/13 03:52:52;;;;;;;3.90;3.30;;;7.10;99.90;;;;;;5079321;28;20790;-75
2021/03/13 03:55:20;;;;;;;2.70;2.50;;;6.80;99.90;;;;;;5087877;28;20773;-75
2021/03/13 03:57:47;;;;;;;5.33;3.73;;;6.90;99.90;;;;;;5091588;28;20774;-75
2021/03/13 04:00:15;;;;;;;2.80;2.53;;;6.90;99.90;;;;;;5101690;28;21112;-75
2021/03/13 04:02:42;;;;;;;2.73;2.53;;;6.90;99.90;;;;;;5087067;28;20830;-75
2021/03/13 04:05:11;;;;;;;3.20;2.90;;;6.80;99.90;;;;;;5108566;28;20522;-75
2021/03/13 04:07:38;;;;;;;3.17;2.80;;;7.10;99.90;;;;;;5108791;28;20423;-75
2021/03/13 04:10:06;;;;;;;3.30;2.10;;;6.90;99.90;;;;;;5081398;28;20934;-75
2021/03/13 04:12:35;;;;;;;2.73;2.53;;;7.10;99.90;;;;;;5100477;28;20430;-75
2021/03/13 04:15:01;;;;;;;2.80;2.30;;;6.70;99.90;;;;;;5096433;27;20555;-75
2021/03/13 04:17:32;;;;;;;2.40;2.20;;;6.80;99.90;;;;;;5089397;28;20983;-75
2021/03/13 04:19:58;;;;;;;2.50;1.90;;;6.80;99.90;;;;;;5107068;28;20686;-75
2021/03/13 04:22:25;;;;;;;2.03;1.70;;;7.00;99.90;;;;;;5107254;28;20464;-75
2021/03/13 04:24:54;;;;;;;1.67;1.57;;;7.00;99.90;;;;;;5073145;28;20436;-75
2021/03/13 04:27:21;;;;;;;2.90;1.70;;;6.80;99.90;;;;;;5101616;28;20490;-75
2021/03/13 04:29:47;;;;;;;3.37;1.73;;;6.90;99.90;;;;;;5098603;28;20418;-75
2021/03/13 04:32:17;;;;;;;1.70;1.40;;;6.80;99.90;;;;;;5108476;28;20421;-75
2021/03/13 04:34:45;;;;;;;1.43;1.30;;;6.70;99.90;;;;;;5096269;28;20491;-75
2021/03/13 04:37:11;;;;;;;1.63;1.30;;;6.80;99.90;;;;;;5107991;28;20421;-75
2021/03/13 04:39:41;;;;;;;2.13;1.20;;;6.90;99.90;;;;;;5093434;28;20533;-75
2021/03/13 04:42:07;;;;;;;1.97;1.30;;;6.90;99.90;;;;;;5090642;28;20454;-75
2021/03/13 04:44:33;;;;;;;1.30;1.20;;;6.90;99.90;;;;;;5080271;28;20421;-75
2021/03/13 04:47:00;;;;;;;2.37;1.20;;;6.90;99.90;;;;;;5093273;28;20451;-76
2021/03/13 04:49:26;;;;;;;1.27;1.00;;;6.80;99.90;;;;;;5089865;28;20794;-75
2021/03/13 04:51:52;;;;;;;1.30;1.20;;;6.90;99.90;;;;;;5090151;28;20420;-75
2021/03/13 04:54:18;;;;;;;2.87;1.87;;;7.00;99.90;;;;;;5102333;28;20521;-75
2021/03/13 04:56:43;;;;;;;2.10;1.00;;;6.90;99.90;;;;;;5066474;28;20517;-75
2021/03/13 04:59:09;;;;;;;3.13;1.47;;;6.80;99.90;;;;;;5090222;28;20187;-75
2021/03/13 05:01:35;;;;;;;1.43;1.10;;;7.20;99.90;;;;;;5104376;28;20268;-75
2021/03/13 05:04:00;;;;;;;1.00;0.90;;;7.10;99.90;;;;;;5087650;28;20225;-76
2021/03/13 05:06:26;;;;;;;1.10;1.00;;;6.90;99.90;;;;;;5104250;28;20168;-75
2021/03/13 05:08:55;;;;;;;1.87;1.40;;;6.90;99.90;;;;;;5087399;28;20218;-75
2021/03/13 05:11:20;;;;;;;2.10;1.10;;;6.90;99.90;;;;;;5079856;28;20761;-75
2021/03/13 05:13:46;;;;;;;1.80;1.33;;;6.90;99.90;;;;;;5093545;28;20421;-76
2021/03/13 05:16:12;;;;;;;1.47;1.00;;;6.80;99.90;;;;;;5102978;28;20194;-75
2021/03/13 05:18:38;;;;;;;1.63;1.07;;;7.10;99.90;;;;;;5098293;28;20206;-75
2021/03/13 05:21:03;;;;;;;1.47;1.33;;;6.80;99.90;;;;;;5102271;28;20180;-75
2021/03/13 05:23:29;;;;;;;1.63;1.40;;;6.80;99.90;;;;;;5105845;28;20548;-75
2021/03/13 05:25:55;;;;;;;1.43;1.23;;;7.10;99.90;;;;;;5085364;28;20184;-76
2021/03/13 05:28:20;;;;;;;1.33;1.00;;;6.90;99.90;;;;;;5090062;28;20191;-75
2021/03/13 05:30:49;;;;;;;1.67;1.20;;;6.90;99.90;;;;;;5102407;28;20218;-75
2021/03/13 05:33:14;;;;;;;1.47;1.37;;;6.80;99.90;;;;;;5102619;28;20199;-73
2021/03/13 05:35:40;;;;;;;1.20;1.10;;;6.90;99.90;;;;;;5086128;28;20787;-73
2021/03/13 05:38:08;;;;;;;1.20;1.10;;;7.10;99.90;;;;;;5088838;28;20195;-74
2021/03/13 05:40:34;;;;;;;1.70;1.20;;;7.00;99.90;;;;;;5092568;28;20215;-74
2021/03/13 05:42:59;;;;;;;1.50;1.40;;;6.80;99.90;;;;;;5086010;28;20877;-73
2021/03/13 05:45:26;;;;;;;2.03;1.00;;;6.90;99.90;;;;;;5090169;28;20176;-73
2021/03/13 05:47:54;;;;;;;1.13;1.03;;;6.90;99.90;;;;;;5102528;28;20283;-74
2021/03/13 05:50:21;;;;;;;1.33;1.23;;;7.10;99.90;;;;;;5104034;28;20453;-74
2021/03/13 05:52:53;;;;;;;1.27;1.00;;;7.20;99.90;;;;;;5105766;28;20414;-73
2021/03/13 05:55:20;;;;;;;2.07;1.27;;;7.30;99.90;;;;;;5097015;28;20422;-74
2021/03/13 05:57:45;;;;;;;1.17;0.80;;;7.10;99.90;;;;;;5070867;28;20429;-73
2021/03/13 06:00:12;;;;;;;3.47;1.03;;;7.30;99.90;;;;;;5098606;28;20425;-73
2021/03/13 06:02:37;;;;;;;1.20;0.83;;;7.30;99.90;;;;;;5106608;28;20235;-73
2021/03/13 06:05:04;;;;;;;0.90;0.77;;;7.30;99.90;;;;;;5093074;28;20461;-73
2021/03/13 06:07:31;;;;;;;1.43;0.80;;;7.50;99.90;;;;;;5106024;28;20849;-73
2021/03/13 06:09:58;;;;;;;2.90;1.07;;;7.20;99.90;;;;;;5081146;28;20454;-73
2021/03/13 06:12:25;;;;;;;0.83;0.83;;;7.40;99.90;;;;;;5111344;28;20942;-74
2021/03/13 06:14:53;;;;;;;1.43;0.63;;;7.40;99.90;;;;;;5101772;28;20419;-73
2021/03/13 06:17:22;;;;;;;0.97;0.87;;;7.10;99.90;;;;;;5099444;28;20739;-73
2021/03/13 06:19:58;;;;;;;1.10;0.60;;;7.60;99.90;;;;;;5080494;28;20985;-73
2021/03/13 06:22:43;;;;;;;1.50;1.10;;;7.40;99.90;;;;;;5105149;28;20823;-73
2021/03/13 06:25:22;;;;;;;1.07;0.97;;;7.50;99.90;;;;;;5064322;28;20582;-73
2021/03/13 06:28:00;;;;;;;1.57;0.90;;;7.60;99.90;;;;;;5078542;28;21028;-73
2021/03/13 06:30:30;;;;;;;0.73;0.73;;;7.60;99.90;;;;;;5085436;28;20426;-73
2021/03/13 06:32:56;;;;;;;0.70;0.70;;;7.20;99.90;;;;;;5093178;28;20413;-73
2021/03/13 06:35:24;;;;;;;1.27;0.97;;;7.60;99.90;;;;;;5103239;28;20791;-73
2021/03/13 06:37:53;;;;;;;3.43;0.90;;;7.50;99.90;;;;;;5106641;28;20417;-73
2021/03/13 06:40:45;;;;;;;1.03;0.90;;;7.40;99.90;;;;;;5079615;28;20431;-73
2021/03/13 06:43:17;;;;;;;1.10;0.70;;;7.60;99.90;;;;;;5078727;28;20635;-74
2021/03/13 06:45:56;;;;;;;4.73;0.97;;;7.60;99.90;;;;;;5092392;28;20469;-75
2021/03/13 06:48:38;;;;;;;1.10;0.90;;;7.40;99.90;;;;;;5104826;28;20460;-73
2021/03/13 06:51:31;;;;;;;0.90;0.80;;;7.50;99.90;;;;;;5100312;28;20812;-73
2021/03/13 06:54:01;;;;;;;3.43;0.93;;;7.40;99.90;;;;;;5108966;28;20444;-73
2021/03/13 06:56:28;;;;;;;3.13;1.53;;;7.60;99.90;;;;;;5085839;28;20464;-73
2021/03/13 06:58:55;;;;;;;2.30;1.03;;;7.50;99.90;;;;;;5081157;28;20422;-73
2021/03/13 07:01:31;;;;;;;1.43;1.07;;;7.60;99.90;;;;;;5070628;28;20785;-73
2021/03/13 07:03:58;;;;;;;1.60;0.90;;;7.70;99.90;;;;;;5086950;28;20430;-73
2021/03/13 07:06:25;;;;;;;2.10;0.80;;;7.50;99.90;;;;;;5107198;28;20406;-74
2021/03/13 07:08:52;;;;;;;3.33;1.07;;;7.60;99.90;;;;;;5108460;28;20417;-73
2021/03/13 07:11:24;;;;;;;1.30;0.53;;;7.70;99.90;;;;;;5090143;28;20429;-73
2021/03/13 07:13:55;;;;;;;0.97;0.77;;;7.50;99.90;;;;;;5087913;28;20623;-73
2021/03/13 07:16:29;;;;;;;0.70;0.70;;;7.60;99.90;;;;;;5095075;28;20913;-73
2021/03/13 07:19:12;;;;;;;1.30;1.10;;;7.70;99.90;;;;;;5104162;28;20413;-73
2021/03/13 07:21:41;;;;;;;1.73;0.80;;;7.80;99.90;;;;;;5085778;28;20454;-73
2021/03/13 07:24:13;;;;;;;3.80;1.03;;;7.70;99.90;;;;;;5064926;28;20449;-74
2021/03/13 07:26:44;;;;;;;2.10;0.73;;;7.60;99.90;;;;;;5078529;28;20522;-74
2021/03/13 07:29:11;;;;;;;0.90;0.50;;;7.70;99.90;;;;;;5093486;28;20405;-73
2021/03/13 07:31:45;;;;;;;2.20;0.63;;;7.70;99.90;;;;;;5089021;28;20779;-73
2021/03/13 07:34:18;;;;;;;2.40;0.93;;;7.70;99.90;;;;;;5069678;28;20422;-73
2021/03/13 07:36:50;;;;;;;1.37;0.60;;;7.70;99.90;;;;;;5087931;28;20426;-73
2021/03/13 07:39:21;;;;;;;2.27;0.93;;;7.80;99.90;;;;;;5073957;28;20434;-73
2021/03/13 07:42:05;;;;;;;1.73;0.70;;;7.80;99.90;;;;;;5108833;27;20461;-73
2021/03/13 07:44:31;;;;;;;1.97;1.23;;;7.90;99.90;;;;;;5090525;28;20759;-73
2021/03/13 07:46:58;;;;;;;1.43;1.00;;;7.70;99.90;;;;;;5084674;28;20411;-73
2021/03/13 07:49:24;;;;;;;1.50;0.90;;;7.60;99.90;;;;;;5092322;28;20789;-73
2021/03/13 07:51:51;;;;;;;1.23;0.43;;;7.60;99.90;;;;;;5106023;28;20496;-73
2021/03/13 07:54:17;;;;;;;3.23;0.60;;;7.80;99.90;;;;;;5097631;28;20414;-73
2021/03/13 07:56:44;;;;;;;0.90;0.67;;;7.40;99.90;;;;;;5082364;28;20433;-74
2021/03/13 07:59:34;;;;;;;1.40;0.60;;;7.50;99.90;;;;;;5094118;28;20476;-73
2021/03/13 08:01:59;;;;;;;0.83;0.70;;;7.50;99.90;;;;;;5085895;28;20545;-73
2021/03/13 08:04:37;;;;;;;1.90;0.77;;;7.40;99.90;;;;;;5081310;28;20985;-74
2021/03/13 08:07:04;;;;;;;2.10;0.70;;;7.50;99.90;;;;;;5086969;28;20184;-73
2021/03/13 08:09:32;;;;;;;1.53;0.50;;;7.40;99.90;;;;;;5103904;28;20492;-73
2021/03/13 08:12:04;;;;;;;1.60;0.50;;;7.30;99.90;;;;;;5093590;28;20434;-73
2021/03/13 08:14:34;;;;;;;0.90;0.63;;;7.20;99.90;;;;;;5087014;28;20797;-73
2021/03/13 08:17:07;;;;;;;1.47;0.60;;;7.20;99.90;;;;;;5089846;28;20778;-73
2021/03/13 08:19:45;;;;;;;1.90;0.67;;;7.20;99.90;;;;;;5087119;28;20423;-74
2021/03/13 08:22:18;;;;;;;0.80;0.60;;;7.20;99.90;;;;;;5102362;28;20446;-73
2021/03/13 08:24:56;;;;;;;1.43;0.50;;;7.20;99.90;;;;;;5075618;28;20410;-74
2021/03/13 08:27:33;;;;;;;1.37;0.50;;;7.10;99.90;;;;;;5090444;28;20415;-74
2021/03/13 08:30:00;;;;;;;2.50;0.50;;;7.20;99.90;;;;;;5095131;28;20414;-74
2021/03/13 08:33:08;;;;;;;0.87;0.60;;;7.30;99.90;;;;;;5086460;28;20448;-73
2021/03/13 08:35:45;;;;;;;1.60;0.90;;;7.40;99.90;;;;;;5079077;28;20504;-73
2021/03/13 08:38:12;;;;;;;1.87;0.60;;;7.40;99.90;;;;;;5099436;28;20426;-73
2021/03/13 08:40:44;;;;;;;2.43;0.50;;;7.20;99.90;;;;;;5088752;28;20770;-74
2021/03/13 08:43:35;;;;;;;1.10;0.50;;;7.30;99.90;;;;;;5076286;28;20494;-74
2021/03/13 08:46:04;;;;;;;1.80;0.80;;;7.50;99.90;;;;;;5086570;28;20414;-74
2021/03/13 08:48:55;;;;;;;1.37;0.60;;;7.50;99.90;;;;;;5072379;28;20497;-73
2021/03/13 08:51:21;;;;;;;1.00;0.60;;;7.20;99.90;;;;;;5093937;28;20421;-74
2021/03/13 08:53:47;;;;;;;3.60;0.70;;;7.50;99.90;;;;;;5093202;28;20418;-74
2021/03/13 08:56:35;;;;;;;1.27;1.07;;;7.50;99.90;;;;;;5108114;28;20194;-73
2021/03/13 08:59:09;;;;;;;3.13;0.80;;;7.40;99.90;;;;;;5082631;28;20183;-73
2021/03/13 09:01:35;;;;;;;3.20;0.60;;;7.40;99.90;;;;;;5087457;28;20505;-73
2021/03/13 09:04:00;;;;;;;1.77;0.60;;;7.60;99.90;;;;;;5065531;28;20431;-73
2021/03/13 09:06:26;;;;;;;2.33;0.90;;;7.60;99.90;;;;;;5090145;28;20457;-74
2021/03/13 09:09:10;;;;;;;0.90;0.70;;;7.50;99.90;;;;;;5107466;28;20203;-73
2021/03/13 09:11:37;;;;;;;3.47;1.00;;;7.40;99.90;;;;;;5086151;28;20180;-73
2021/03/13 09:14:05;;;;;;;1.70;0.80;;;7.60;99.90;;;;;;5094511;28;20423;-73
2021/03/13 09:16:39;;;;;;;1.50;1.00;;;7.60;99.90;;;;;;5092703;28;20421;-73
2021/03/13 09:19:07;;;;;;;2.87;1.07;;;7.50;99.90;;;;;;5106731;28;20421;-73
2021/03/13 09:21:51;;;;;;;2.87;0.87;;;7.70;99.90;;;;;;5099871;28;20482;-73
2021/03/13 09:24:23;;;;;;;3.33;1.00;;;7.50;99.90;;;;;;5073244;28;20860;-73
2021/03/13 09:26:53;;;;;;;1.40;0.80;;;7.50;99.90;;;;;;5092976;28;20429;-73
2021/03/13 09:29:45;;;;;;;0.83;0.60;;;7.50;99.90;;;;;;5080404;28;20770;-73
2021/03/13 09:32:13;;;;;;;3.30;1.00;;;7.60;99.90;;;;;;5083357;28;20429;-73
2021/03/13 09:34:43;;;;;;;2.67;1.07;;;7.60;99.90;;;;;;5088900;28;20418;-73
2021/03/13 09:37:16;;;;;;;2.73;0.97;;;7.60;99.90;;;;;;5105851;28;20414;-74
2021/03/13 09:39:44;;;;;;;2.60;1.53;;;7.80;99.90;;;;;;5104467;28;20452;-73
2021/03/13 09:42:11;;;;;;;3.47;0.80;;;7.60;99.90;;;;;;5099822;28;20459;-73
2021/03/13 09:44:41;;;;;;;1.60;1.00;;;7.90;99.90;;;;;;5077065;28;20411;-73
2021/03/13 09:47:12;;;;;;;4.63;1.10;;;7.90;99.90;;;;;;5085421;28;20418;-73
2021/03/13 09:49:38;;;;;;;3.10;1.17;;;7.80;99.90;;;;;;5085853;28;20414;-73
2021/03/13 09:52:05;;;;;;;3.87;1.00;;;7.80;99.90;;;;;;5102127;28;21649;-73
2021/03/13 09:54:31;;;;;;;4.27;1.30;;;7.70;99.90;;;;;;5099031;28;20449;-73
2021/03/13 09:56:56;;;;;;;3.87;1.50;;;8.00;99.90;;;;;;5104553;28;20457;-74
2021/03/13 09:59:22;;;;;;;4.87;1.30;;;7.90;99.90;;;;;;5075339;28;20200;-73
2021/03/13 10:01:48;;;;;;;5.77;1.77;;;7.80;99.90;;;;;;5119239;27;20571;-73
2021/03/13 10:04:14;;;;;;;3.33;1.07;;;7.80;99.90;;;;;;5098672;28;20479;-73
2021/03/13 10:06:43;;;;;;;4.50;2.13;;;7.60;99.90;;;;;;5100335;28;20434;-73
2021/03/13 10:09:11;;;;;;;3.77;1.13;;;7.80;99.90;;;;;;5106064;28;20571;-76
2021/03/13 10:11:42;;;;;;;5.50;1.73;;;7.90;99.90;;;;;;5087964;28;20422;-74
2021/03/13 10:14:21;;;;;;;4.97;2.70;;;7.90;99.90;;;;;;5078678;28;20438;-74
2021/03/13 10:16:57;;;;;;;5.47;1.40;;;7.80;99.90;;;;;;5089235;28;20426;-73
2021/03/13 10:19:40;;;;;;;3.37;1.40;;;7.70;99.90;;;;;;5101493;28;20521;-75
2021/03/13 10:22:23;;;;;;;5.67;1.83;;;7.70;99.90;;;;;;5104528;28;20460;-75
2021/03/13 10:24:54;;;;;;;3.87;1.30;;;7.80;99.90;;;;;;5105596;28;20421;-75
2021/03/13 10:27:26;;;;;;;6.90;1.50;;;7.90;99.90;;;;;;5102081;28;20465;-75
2021/03/13 10:30:03;;;;;;;7.20;1.50;;;7.90;99.90;;;;;;5081366;28;20832;-75
2021/03/13 10:32:31;;;;;;;5.40;1.70;;;8.20;99.90;;;;;;5091150;28;20591;-75
2021/03/13 10:35:10;;;;;;;2.87;1.20;;;8.20;99.90;;;;;;5104887;28;20414;-75
2021/03/13 10:37:48;;;;;;;3.07;1.77;;;8.30;99.90;;;;;;5096100;28;20781;-75
2021/03/13 10:40:35;;;;;;;7.03;2.03;;;8.50;99.90;;;;;;5105084;28;20466;-75
2021/03/13 10:43:16;;;;;;;6.50;1.80;;;8.60;99.90;;;;;;5094930;28;20493;-75
2021/03/13 10:45:44;;;;;;;4.73;1.73;;;8.40;99.90;;;;;;5099241;28;20406;-75
2021/03/13 10:48:11;;;;;;;2.60;1.60;;;8.40;99.90;;;;;;5085708;28;20934;-75
2021/03/13 10:50:39;;;;;;;6.07;1.90;;;8.50;99.90;;;;;;5085386;28;20422;-75
2021/03/13 10:53:36;;;;;;;4.10;1.60;;;8.80;99.90;;;;;;5098623;28;20487;-75
2021/03/13 10:56:10;;;;;;;5.93;1.60;;;8.80;99.90;;;;;;5105003;28;20432;-75
2021/03/13 10:58:38;;;;;;;5.23;2.50;;;8.50;99.90;;;;;;5084817;28;20823;-75
2021/03/13 11:01:07;;;;;;;6.00;1.90;;;8.60;99.90;;;;;;5077297;28;20502;-75
2021/03/13 11:03:33;;;;;;;4.73;1.50;;;8.70;99.90;;;;;;5095556;28;20453;-75
2021/03/13 11:05:59;;;;;;;5.13;1.70;;;8.80;99.90;;;;;;5104289;28;20500;-75
2021/03/13 11:08:27;;;;;;;4.73;1.70;;;8.70;99.90;;;;;;5105136;28;20413;-75
2021/03/13 11:10:54;;;;;;;5.23;1.90;;;9.20;99.90;;;;;;5105101;28;20583;-75
2021/03/13 11:13:21;;;;;;;4.93;2.37;;;9.70;99.90;;;;;;5092071;27;20427;-75
2021/03/13 11:15:47;;;;;;;11.23;2.20;;;9.40;99.90;;;;;;5099331;28;20445;-75
2021/03/13 11:18:14;;;;;;;5.37;1.60;;;9.50;99.90;;;;;;5100099;28;20421;-75
2021/03/13 11:20:40;;;;;;;8.47;2.73;;;9.50;99.90;;;;;;5105340;28;20366;-75
2021/03/13 11:23:06;;;;;;;6.37;2.00;;;9.20;99.90;;;;;;5096175;28;20729;-75
2021/03/13 11:25:32;;;;;;;8.13;2.20;;;9.10;99.90;;;;;;5105783;28;20862;-75
2021/03/13 11:27:58;;;;;;;3.43;1.73;;;8.80;99.90;;;;;;5082018;28;20546;-75
2021/03/13 11:30:25;;;;;;;6.53;2.20;;;8.50;99.90;;;;;;5098936;28;20985;-75
2021/03/13 11:32:50;;;;;;;7.20;2.33;;;8.30;99.90;;;;;;5098381;28;20424;-75
2021/03/13 11:35:20;;;;;;;9.23;1.90;;;8.20;99.90;;;;;;5107487;28;20425;-75
2021/03/13 11:37:46;;;;;;;6.80;2.00;;;8.50;99.90;;;;;;5089075;28;20220;-75
2021/03/13 11:40:14;;;;;;;4.43;1.60;;;8.70;99.90;;;;;;5099717;28;20842;-75
2021/03/13 11:42:39;;;;;;;8.33;3.10;;;9.20;99.90;;;;;;5088871;28;20522;-75
2021/03/13 11:45:07;;;;;;;6.70;2.47;;;9.50;99.90;;;;;;5081130;28;20442;-75
2021/03/13 11:47:33;;;;;;;7.30;2.30;;;9.80;99.90;;;;;;5088712;28;20184;-75
2021/03/13 11:50:00;;;;;;;8.00;2.00;;;10.20;99.90;;;;;;5085313;28;20425;-75
2021/03/13 11:52:25;;;;;;;7.80;2.10;;;10.30;99.90;;;;;;5102067;28;20838;-75
2021/03/13 11:54:52;;;;;;;7.73;1.70;;;10.40;99.90;;;;;;5084001;28;20417;-74
2021/03/13 11:57:20;;;;;;;7.20;2.63;;;10.30;99.90;;;;;;5087396;28;20199;-75
2021/03/13 11:59:47;;;;;;;6.97;2.87;;;10.30;99.90;;;;;;5078988;28;20480;-75
2021/03/13 12:02:16;;;;;;;8.00;2.50;;;10.20;99.90;;;;;;5087391;28;20900;-75
2021/03/13 12:04:43;;;;;;;8.47;2.20;;;9.90;99.90;;;;;;5088341;28;20422;-75
2021/03/13 12:07:10;;;;;;;7.23;1.90;;;9.50;99.90;;;;;;5084442;28;20446;-75
2021/03/13 12:09:36;;;;;;;14.70;2.60;;;9.50;99.90;;;;;;5087012;28;20579;-75
2021/03/13 12:12:05;;;;;;;9.90;2.07;;;9.40;99.90;;;;;;5088170;28;20831;-75
2021/03/13 12:14:31;;;;;;;5.77;2.03;;;9.30;99.90;;;;;;5081733;28;20858;-75
2021/03/13 12:16:56;;;;;;;3.43;2.07;;;9.90;99.90;;;;;;5100824;28;20517;-75
2021/03/13 12:19:22;;;;;;;2.67;1.70;;;9.90;99.90;;;;;;5072296;28;20429;-75
2021/03/13 12:21:50;;;;;;;4.47;1.60;;;9.90;99.90;;;;;;5098902;28;20545;-75
2021/03/13 12:24:16;;;;;;;3.70;1.47;;;10.20;99.90;;;;;;5091149;28;20457;-75
2021/03/13 12:26:42;;;;;;;6.13;2.07;;;10.30;99.90;;;;;;5107423;28;20418;-75
2021/03/13 12:29:08;;;;;;;10.00;1.83;;;10.30;99.90;;;;;;5099968;28;20425;-75
2021/03/13 12:31:33;;;;;;;5.27;1.70;;;10.40;99.90;;;;;;5082724;28;20972;-75
2021/03/13 12:33:59;;;;;;;7.63;1.60;;;10.20;99.90;;;;;;5095396;28;20709;-75
2021/03/13 12:36:25;;;;;;;4.47;1.37;;;10.00;99.90;;;;;;5098587;28;20179;-75
2021/03/13 12:38:51;;;;;;;7.20;1.87;;;9.90;99.90;;;;;;5088587;28;20185;-76
2021/03/13 12:41:17;;;;;;;10.50;1.87;;;9.90;99.90;;;;;;5104891;28;20272;-75
2021/03/13 12:43:42;;;;;;;10.50;2.83;;;9.80;99.90;;;;;;5103948;28;20222;-74
2021/03/13 12:46:14;;;;;;;6.20;1.90;;;9.70;99.90;;;;;;5095513;28;20419;-75
2021/03/13 12:48:41;;;;;;;9.50;2.13;;;9.50;99.90;;;;;;5103387;28;20203;-75
2021/03/13 12:51:10;;;;;;;5.30;1.93;;;9.30;99.90;;;;;;5096870;28;20512;-75
2021/03/13 12:53:40;;;;;;;5.10;1.37;;;9.40;99.90;;;;;;5099091;28;20988;-81
2021/03/13 12:56:06;;;;;;;4.97;1.57;;;8.80;99.90;;;;;;5095046;28;20410;-74
2021/03/13 12:58:32;;;;;;;5.33;1.20;;;8.50;99.90;;;;;;5093571;28;20421;-75
2021/03/13 13:00:58;;;;;;;3.20;0.90;;;8.10;99.90;;;;;;5075240;28;20777;-75
2021/03/13 13:03:23;;;;;;;4.07;1.03;;;8.10;99.90;;;;;;5076276;28;20469;-75
2021/03/13 13:05:49;;;;;;;3.30;0.73;;;8.00;99.90;;;;;;5081596;28;20713;-75
2021/03/13 13:08:18;;;;;;;1.90;0.90;;;8.00;99.90;;;;;;5104148;28;20523;-75